sensor_id;sensor_type;location;lat;lon;timestamp;P1;durP1;ratioP1;P2;durP2;ratioP2
39778;SDS011;25454;49.878;8.618;2022-09-13T00:00:47;7.93;;;6.37;;
39778;SDS011;25454;49.878;8.618;2022-09-13T00:05:51;8.07;;;7.10;;
39778;SDS011;25454;49.878;8.618;2022-09-13T00:10:52;8.20;;;7.40;;
39778;SDS011;25454;49.878;8.618;2022-09-13T00:15:52;8.20;;;7.03;;
39778;SDS011;25454;49.878;8.618;2022-09-13T00:21:02;8.70;;;7.47;;
39778;SDS011;25454;49.878;8.618;2022-09-13T00:26:08;7.93;;;7.13;;
39778;SDS011;25454;49.878;8.618;2022-09-13T00:31:11;8.53;;;7.03;;
39778;SDS011;25454;49.878;8.618;2022-09-13T00:36:12;10.17;;;7.03;;
39778;SDS011;25454;49.878;8.618;2022-09-13T00:41:15;7.87;;;7.07;;
39778;SDS011;25454;49.878;8.618;2022-09-13T00:46:22;9.30;;;8.27;;
39778;SDS011;25454;49.878;8.618;2022-09-13T00:51:27;8.70;;;7.80;;
39778;SDS011;25454;49.878;8.618;2022-09-13T00:56:33;8.67;;;6.77;;
39778;SDS011;25454;49.878;8.618;2022-09-13T01:01:40;8.83;;;7.73;;
39778;SDS011;25454;49.878;8.618;2022-09-13T01:06:46;7.90;;;7.10;;
39778;SDS011;25454;49.878;8.618;2022-09-13T01:11:48;9.07;;;7.20;;
39778;SDS011;25454;49.878;8.618;2022-09-13T01:17:03;8.53;;;7.00;;
39778;SDS011;25454;49.878;8.618;2022-09-13T02:04:36;7.97;;;7.17;;
39778;SDS011;25454;49.878;8.618;2022-09-13T02:09:46;11.60;;;8.00;;
39778;SDS011;25454;49.878;8.618;2022-09-13T02:14:54;11.27;;;7.00;;
39778;SDS011;25454;49.878;8.618;2022-09-13T02:20:16;8.43;;;7.37;;
39778;SDS011;25454;49.878;8.618;2022-09-13T02:25:23;7.40;;;6.70;;
39778;SDS011;25454;49.878;8.618;2022-09-13T02:30:29;8.70;;;6.40;;
39778;SDS011;25454;49.878;8.618;2022-09-13T02:35:34;8.17;;;6.67;;
39778;SDS011;25454;49.878;8.618;2022-09-13T02:40:41;7.57;;;6.70;;
39778;SDS011;25454;49.878;8.618;2022-09-13T02:45:47;7.47;;;6.27;;
39778;SDS011;25454;49.878;8.618;2022-09-13T03:01:48;6.87;;;6.00;;
39778;SDS011;25454;49.878;8.618;2022-09-13T03:06:57;6.00;;;5.47;;
39778;SDS011;25454;49.878;8.618;2022-09-13T03:12:03;7.10;;;5.70;;
39778;SDS011;25454;49.878;8.618;2022-09-13T03:17:35;6.10;;;5.60;;
39778;SDS011;25454;49.878;8.618;2022-09-13T03:33:19;8.27;;;5.97;;
39778;SDS011;25454;49.878;8.618;2022-09-13T03:44:02;6.50;;;5.90;;
39778;SDS011;25454;49.878;8.618;2022-09-13T03:49:11;6.80;;;6.13;;
39778;SDS011;25454;49.878;8.618;2022-09-13T03:54:20;9.57;;;6.90;;
39778;SDS011;25454;49.878;8.618;2022-09-13T03:59:29;8.50;;;7.03;;
39778;SDS011;25454;49.878;8.618;2022-09-13T04:04:30;7.07;;;6.37;;
39778;SDS011;25454;49.878;8.618;2022-09-13T04:09:31;11.23;;;7.30;;
39778;SDS011;25454;49.878;8.618;2022-09-13T04:14:32;8.03;;;6.73;;
39778;SDS011;25454;49.878;8.618;2022-09-13T04:19:33;8.80;;;7.90;;
39778;SDS011;25454;49.878;8.618;2022-09-13T04:24:33;10.50;;;7.77;;
39778;SDS011;25454;49.878;8.618;2022-09-13T04:29:35;9.00;;;8.10;;
39778;SDS011;25454;49.878;8.618;2022-09-13T04:34:35;8.97;;;8.00;;
39778;SDS011;25454;49.878;8.618;2022-09-13T04:39:36;9.37;;;8.33;;
39778;SDS011;25454;49.878;8.618;2022-09-13T04:44:37;8.23;;;7.43;;
39778;SDS011;25454;49.878;8.618;2022-09-13T04:49:37;11.00;;;8.73;;
39778;SDS011;25454;49.878;8.618;2022-09-13T04:54:39;9.13;;;8.20;;
39778;SDS011;25454;49.878;8.618;2022-09-13T04:59:39;9.30;;;8.30;;
39778;SDS011;25454;49.878;8.618;2022-09-13T05:04:40;9.07;;;8.17;;
39778;SDS011;25454;49.878;8.618;2022-09-13T05:09:40;8.93;;;7.43;;
39778;SDS011;25454;49.878;8.618;2022-09-13T05:14:41;8.70;;;7.90;;
39778;SDS011;25454;49.878;8.618;2022-09-13T05:19:41;19.73;;;9.93;;
39778;SDS011;25454;49.878;8.618;2022-09-13T05:24:42;10.00;;;8.60;;
39778;SDS011;25454;49.878;8.618;2022-09-13T05:29:46;10.73;;;7.73;;
39778;SDS011;25454;49.878;8.618;2022-09-13T05:34:47;9.10;;;7.90;;
39778;SDS011;25454;49.878;8.618;2022-09-13T05:39:48;12.70;;;8.97;;
39778;SDS011;25454;49.878;8.618;2022-09-13T05:44:48;11.63;;;9.00;;
39778;SDS011;25454;49.878;8.618;2022-09-13T05:49:52;11.97;;;8.40;;
39778;SDS011;25454;49.878;8.618;2022-09-13T05:54:52;10.27;;;9.17;;
39778;SDS011;25454;49.878;8.618;2022-09-13T05:59:53;11.43;;;8.57;;
39778;SDS011;25454;49.878;8.618;2022-09-13T06:04:53;12.33;;;9.33;;
39778;SDS011;25454;49.878;8.618;2022-09-13T06:09:54;10.20;;;9.13;;
39778;SDS011;25454;49.878;8.618;2022-09-13T06:14:54;12.33;;;8.70;;
39778;SDS011;25454;49.878;8.618;2022-09-13T06:19:55;9.33;;;8.53;;
39778;SDS011;25454;49.878;8.618;2022-09-13T06:24:56;12.30;;;8.87;;
39778;SDS011;25454;49.878;8.618;2022-09-13T06:29:56;11.87;;;9.63;;
39778;SDS011;25454;49.878;8.618;2022-09-13T06:35:07;9.80;;;8.90;;
39778;SDS011;25454;49.878;8.618;2022-09-13T06:40:10;14.50;;;10.13;;
39778;SDS011;25454;49.878;8.618;2022-09-13T06:45:12;10.70;;;9.67;;
39778;SDS011;25454;49.878;8.618;2022-09-13T06:50:13;11.53;;;9.93;;
39778;SDS011;25454;49.878;8.618;2022-09-13T06:55:14;11.53;;;8.73;;
39778;SDS011;25454;49.878;8.618;2022-09-13T07:00:14;10.33;;;9.03;;
39778;SDS011;25454;49.878;8.618;2022-09-13T07:05:15;9.97;;;7.93;;
39778;SDS011;25454;49.878;8.618;2022-09-13T07:10:18;11.17;;;8.43;;
39778;SDS011;25454;49.878;8.618;2022-09-13T07:15:19;8.77;;;7.53;;
39778;SDS011;25454;49.878;8.618;2022-09-13T07:20:20;9.37;;;7.70;;
39778;SDS011;25454;49.878;8.618;2022-09-13T07:25:22;8.73;;;7.87;;
39778;SDS011;25454;49.878;8.618;2022-09-13T07:30:22;12.93;;;6.47;;
39778;SDS011;25454;49.878;8.618;2022-09-13T07:35:25;7.30;;;6.57;;
39778;SDS011;25454;49.878;8.618;2022-09-13T07:40:26;10.47;;;7.07;;
39778;SDS011;25454;49.878;8.618;2022-09-13T07:45:26;9.47;;;6.50;;
39778;SDS011;25454;49.878;8.618;2022-09-13T07:50:27;8.10;;;7.10;;
39778;SDS011;25454;49.878;8.618;2022-09-13T07:55:27;9.90;;;6.90;;
39778;SDS011;25454;49.878;8.618;2022-09-13T08:00:29;10.10;;;7.73;;
39778;SDS011;25454;49.878;8.618;2022-09-13T08:05:29;8.70;;;7.50;;
39778;SDS011;25454;49.878;8.618;2022-09-13T08:10:32;8.57;;;7.77;;
39778;SDS011;25454;49.878;8.618;2022-09-13T08:15:33;9.40;;;7.63;;
39778;SDS011;25454;49.878;8.618;2022-09-13T08:20:37;8.60;;;7.80;;
39778;SDS011;25454;49.878;8.618;2022-09-13T08:25:38;9.30;;;6.87;;
39778;SDS011;25454;49.878;8.618;2022-09-13T08:30:39;8.07;;;7.17;;
39778;SDS011;25454;49.878;8.618;2022-09-13T08:35:48;10.13;;;7.43;;
39778;SDS011;25454;49.878;8.618;2022-09-13T08:52:03;7.73;;;6.93;;
39778;SDS011;25454;49.878;8.618;2022-09-13T08:57:18;9.63;;;7.10;;
39778;SDS011;25454;49.878;8.618;2022-09-13T09:08:03;7.63;;;6.83;;
39778;SDS011;25454;49.878;8.618;2022-09-13T09:18:57;10.73;;;7.50;;
39778;SDS011;25454;49.878;8.618;2022-09-13T09:24:02;11.53;;;7.93;;
39778;SDS011;25454;49.878;8.618;2022-09-13T09:29:17;10.90;;;8.77;;
39778;SDS011;25454;49.878;8.618;2022-09-13T09:39:44;12.47;;;8.77;;
39778;SDS011;25454;49.878;8.618;2022-09-13T09:44:46;10.00;;;7.67;;
39778;SDS011;25454;49.878;8.618;2022-09-13T09:49:50;12.20;;;8.77;;
39778;SDS011;25454;49.878;8.618;2022-09-13T10:00:24;10.40;;;8.27;;
39778;SDS011;25454;49.878;8.618;2022-09-13T10:05:28;11.87;;;8.70;;
39778;SDS011;25454;49.878;8.618;2022-09-13T10:10:34;8.80;;;7.63;;
39778;SDS011;25454;49.878;8.618;2022-09-13T10:15:37;12.83;;;8.70;;
39778;SDS011;25454;49.878;8.618;2022-09-13T10:26:11;8.93;;;7.60;;
39778;SDS011;25454;49.878;8.618;2022-09-13T10:31:14;7.87;;;6.77;;
39778;SDS011;25454;49.878;8.618;2022-09-13T10:36:17;8.60;;;7.73;;
39778;SDS011;25454;49.878;8.618;2022-09-13T10:41:22;14.00;;;7.30;;
39778;SDS011;25454;49.878;8.618;2022-09-13T10:46:25;10.20;;;7.37;;
39778;SDS011;25454;49.878;8.618;2022-09-13T10:51:32;9.27;;;6.93;;
39778;SDS011;25454;49.878;8.618;2022-09-13T10:56:35;7.73;;;6.23;;
39778;SDS011;25454;49.878;8.618;2022-09-13T11:01:48;7.63;;;6.03;;
39778;SDS011;25454;49.878;8.618;2022-09-13T11:12:26;7.23;;;5.60;;
39778;SDS011;25454;49.878;8.618;2022-09-13T11:33:40;10.23;;;8.20;;
39778;SDS011;25454;49.878;8.618;2022-09-13T11:45:28;7.93;;;6.73;;
39778;SDS011;25454;49.878;8.618;2022-09-13T11:55:32;12.97;;;9.67;;
39778;SDS011;25454;49.878;8.618;2022-09-13T12:00:44;11.87;;;8.53;;
39778;SDS011;25454;49.878;8.618;2022-09-13T12:05:50;12.17;;;9.77;;
39778;SDS011;25454;49.878;8.618;2022-09-13T12:11:05;10.53;;;8.37;;
39778;SDS011;25454;49.878;8.618;2022-09-13T12:16:13;11.00;;;9.03;;
39778;SDS011;25454;49.878;8.618;2022-09-13T12:21:20;8.90;;;8.00;;
39778;SDS011;25454;49.878;8.618;2022-09-13T12:31:47;9.47;;;8.33;;
39778;SDS011;25454;49.878;8.618;2022-09-13T12:36:59;10.37;;;8.03;;
39778;SDS011;25454;49.878;8.618;2022-09-13T12:53:08;7.83;;;6.57;;
39778;SDS011;25454;49.878;8.618;2022-09-13T13:04:18;9.23;;;7.07;;
39778;SDS011;25454;49.878;8.618;2022-09-13T13:19:38;11.17;;;9.47;;
39778;SDS011;25454;49.878;8.618;2022-09-13T13:24:42;7.20;;;6.37;;
39778;SDS011;25454;49.878;8.618;2022-09-13T13:29:46;11.80;;;8.33;;
39778;SDS011;25454;49.878;8.618;2022-09-13T13:35:27;10.47;;;8.00;;
39778;SDS011;25454;49.878;8.618;2022-09-13T13:40:31;9.63;;;7.90;;
39778;SDS011;25454;49.878;8.618;2022-09-13T13:45:31;9.37;;;7.40;;
39778;SDS011;25454;49.878;8.618;2022-09-13T13:50:33;8.37;;;7.57;;
39778;SDS011;25454;49.878;8.618;2022-09-13T13:55:40;11.67;;;7.93;;
39778;SDS011;25454;49.878;8.618;2022-09-13T14:00:49;8.37;;;7.53;;
39778;SDS011;25454;49.878;8.618;2022-09-13T14:27:21;12.23;;;8.00;;
39778;SDS011;25454;49.878;8.618;2022-09-13T14:32:27;7.87;;;6.43;;
39778;SDS011;25454;49.878;8.618;2022-09-13T14:37:39;6.30;;;5.57;;
39778;SDS011;25454;49.878;8.618;2022-09-13T14:42:47;9.80;;;8.03;;
39778;SDS011;25454;49.878;8.618;2022-09-13T14:47:59;7.13;;;6.43;;
39778;SDS011;25454;49.878;8.618;2022-09-13T14:53:06;9.27;;;8.30;;
39778;SDS011;25454;49.878;8.618;2022-09-13T14:58:17;13.47;;;9.93;;
39778;SDS011;25454;49.878;8.618;2022-09-13T15:03:25;10.30;;;9.27;;
39778;SDS011;25454;49.878;8.618;2022-09-13T15:13:34;8.43;;;7.07;;
39778;SDS011;25454;49.878;8.618;2022-09-13T15:18:36;12.70;;;9.63;;
39778;SDS011;25454;49.878;8.618;2022-09-13T15:23:37;9.87;;;8.77;;
39778;SDS011;25454;49.878;8.618;2022-09-13T15:33:44;11.50;;;9.53;;
39778;SDS011;25454;49.878;8.618;2022-09-13T15:38:58;11.93;;;10.67;;
39778;SDS011;25454;49.878;8.618;2022-09-13T15:44:08;16.37;;;12.87;;
39778;SDS011;25454;49.878;8.618;2022-09-13T15:49:09;17.53;;;13.50;;
39778;SDS011;25454;49.878;8.618;2022-09-13T15:54:16;15.07;;;13.47;;
39778;SDS011;25454;49.878;8.618;2022-09-13T15:59:18;15.63;;;12.87;;
39778;SDS011;25454;49.878;8.618;2022-09-13T16:04:20;14.97;;;13.30;;
39778;SDS011;25454;49.878;8.618;2022-09-13T16:09:24;16.53;;;12.30;;
39778;SDS011;25454;49.878;8.618;2022-09-13T16:14:26;19.17;;;13.70;;
39778;SDS011;25454;49.878;8.618;2022-09-13T16:19:26;11.17;;;9.03;;
39778;SDS011;25454;49.878;8.618;2022-09-13T16:24:27;8.93;;;8.03;;
39778;SDS011;25454;49.878;8.618;2022-09-13T16:29:28;7.97;;;7.10;;
39778;SDS011;25454;49.878;8.618;2022-09-13T16:34:29;10.80;;;8.43;;
39778;SDS011;25454;49.878;8.618;2022-09-13T16:39:29;9.30;;;8.20;;
39778;SDS011;25454;49.878;8.618;2022-09-13T16:44:30;8.33;;;7.40;;
39778;SDS011;25454;49.878;8.618;2022-09-13T16:49:30;7.87;;;7.07;;
39778;SDS011;25454;49.878;8.618;2022-09-13T16:54:31;10.17;;;7.07;;
39778;SDS011;25454;49.878;8.618;2022-09-13T16:59:34;6.40;;;5.60;;
39778;SDS011;25454;49.878;8.618;2022-09-13T17:04:34;7.83;;;6.30;;
39778;SDS011;25454;49.878;8.618;2022-09-13T17:09:35;14.70;;;8.00;;
39778;SDS011;25454;49.878;8.618;2022-09-13T17:14:36;8.33;;;6.83;;
39778;SDS011;25454;49.878;8.618;2022-09-13T17:19:38;7.83;;;7.03;;
39778;SDS011;25454;49.878;8.618;2022-09-13T17:24:38;9.67;;;7.87;;
39778;SDS011;25454;49.878;8.618;2022-09-13T17:29:39;8.97;;;7.57;;
39778;SDS011;25454;49.878;8.618;2022-09-13T17:38:07;7.53;;;6.83;;
39778;SDS011;25454;49.878;8.618;2022-09-13T17:43:07;8.30;;;7.40;;
39778;SDS011;25454;49.878;8.618;2022-09-13T17:48:08;11.37;;;8.20;;
39778;SDS011;25454;49.878;8.618;2022-09-13T17:53:11;9.97;;;8.97;;
39778;SDS011;25454;49.878;8.618;2022-09-13T17:58:12;14.60;;;9.67;;
39778;SDS011;25454;49.878;8.618;2022-09-13T18:03:13;12.30;;;8.87;;
39778;SDS011;25454;49.878;8.618;2022-09-13T18:08:15;14.33;;;9.37;;
39778;SDS011;25454;49.878;8.618;2022-09-13T18:13:15;11.97;;;10.67;;
39778;SDS011;25454;49.878;8.618;2022-09-13T18:18:19;17.27;;;10.03;;
39778;SDS011;25454;49.878;8.618;2022-09-13T18:23:20;10.63;;;9.50;;
39778;SDS011;25454;49.878;8.618;2022-09-13T18:28:20;15.00;;;10.10;;
39778;SDS011;25454;49.878;8.618;2022-09-13T18:33:21;13.20;;;11.00;;
39778;SDS011;25454;49.878;8.618;2022-09-13T18:38:23;12.53;;;9.80;;
39778;SDS011;25454;49.878;8.618;2022-09-13T18:43:24;13.77;;;10.93;;
39778;SDS011;25454;49.878;8.618;2022-09-13T18:48:31;17.83;;;12.50;;
39778;SDS011;25454;49.878;8.618;2022-09-13T18:53:34;13.43;;;10.60;;
39778;SDS011;25454;49.878;8.618;2022-09-13T18:58:35;15.77;;;10.57;;
39778;SDS011;25454;49.878;8.618;2022-09-13T19:08:47;12.57;;;10.57;;
39778;SDS011;25454;49.878;8.618;2022-09-13T19:13:49;12.33;;;9.73;;
39778;SDS011;25454;49.878;8.618;2022-09-13T19:18:50;11.87;;;10.37;;
39778;SDS011;25454;49.878;8.618;2022-09-13T19:23:51;11.00;;;9.70;;
39778;SDS011;25454;49.878;8.618;2022-09-13T19:28:56;12.30;;;9.57;;
39778;SDS011;25454;49.878;8.618;2022-09-13T19:34:04;11.37;;;8.33;;
39778;SDS011;25454;49.878;8.618;2022-09-13T19:39:05;12.70;;;8.77;;
39778;SDS011;25454;49.878;8.618;2022-09-13T19:44:07;10.17;;;9.00;;
39778;SDS011;25454;49.878;8.618;2022-09-13T19:49:12;8.60;;;7.70;;
39778;SDS011;25454;49.878;8.618;2022-09-13T19:54:14;11.97;;;8.07;;
39778;SDS011;25454;49.878;8.618;2022-09-13T19:59:17;8.47;;;7.67;;
39778;SDS011;25454;49.878;8.618;2022-09-13T20:04:22;9.23;;;7.67;;
39778;SDS011;25454;49.878;8.618;2022-09-13T20:09:24;10.07;;;7.33;;
39778;SDS011;25454;49.878;8.618;2022-09-13T20:14:28;9.20;;;7.73;;
39778;SDS011;25454;49.878;8.618;2022-09-13T20:19:30;11.00;;;7.80;;
39778;SDS011;25454;49.878;8.618;2022-09-13T20:24:31;8.93;;;7.60;;
39778;SDS011;25454;49.878;8.618;2022-09-13T20:29:32;6.77;;;6.17;;
39778;SDS011;25454;49.878;8.618;2022-09-13T20:34:32;8.47;;;7.10;;
39778;SDS011;25454;49.878;8.618;2022-09-13T20:39:34;9.17;;;8.10;;
39778;SDS011;25454;49.878;8.618;2022-09-13T20:44:35;9.20;;;7.10;;
39778;SDS011;25454;49.878;8.618;2022-09-13T20:49:36;11.37;;;8.57;;
39778;SDS011;25454;49.878;8.618;2022-09-13T20:54:37;9.80;;;8.33;;
39778;SDS011;25454;49.878;8.618;2022-09-13T20:59:37;11.13;;;8.93;;
39778;SDS011;25454;49.878;8.618;2022-09-13T21:04:39;10.43;;;9.30;;
39778;SDS011;25454;49.878;8.618;2022-09-13T21:09:39;12.67;;;10.70;;
39778;SDS011;25454;49.878;8.618;2022-09-13T21:14:40;15.70;;;10.20;;
39778;SDS011;25454;49.878;8.618;2022-09-13T21:19:40;11.33;;;9.30;;
39778;SDS011;25454;49.878;8.618;2022-09-13T21:24:41;10.87;;;9.13;;
39778;SDS011;25454;49.878;8.618;2022-09-13T21:29:42;10.43;;;9.27;;
39778;SDS011;25454;49.878;8.618;2022-09-13T21:34:42;11.97;;;8.53;;
39778;SDS011;25454;49.878;8.618;2022-09-13T21:39:43;9.10;;;8.30;;
39778;SDS011;25454;49.878;8.618;2022-09-13T21:44:43;8.00;;;7.30;;
39778;SDS011;25454;49.878;8.618;2022-09-13T21:49:44;9.33;;;8.40;;
39778;SDS011;25454;49.878;8.618;2022-09-13T21:54:45;11.30;;;8.67;;
39778;SDS011;25454;49.878;8.618;2022-09-13T21:59:45;13.07;;;9.30;;
39778;SDS011;25454;49.878;8.618;2022-09-13T22:04:46;12.10;;;9.73;;
39778;SDS011;25454;49.878;8.618;2022-09-13T22:09:46;9.57;;;8.67;;
39778;SDS011;25454;49.878;8.618;2022-09-13T22:14:47;9.67;;;8.70;;
39778;SDS011;25454;49.878;8.618;2022-09-13T22:19:48;8.87;;;8.07;;
39778;SDS011;25454;49.878;8.618;2022-09-13T22:24:48;11.37;;;8.10;;
39778;SDS011;25454;49.878;8.618;2022-09-13T22:29:50;8.80;;;7.90;;
39778;SDS011;25454;49.878;8.618;2022-09-13T22:34:50;9.93;;;7.47;;
39778;SDS011;25454;49.878;8.618;2022-09-13T22:39:51;9.53;;;8.60;;
39778;SDS011;25454;49.878;8.618;2022-09-13T22:44:52;9.10;;;8.30;;
39778;SDS011;25454;49.878;8.618;2022-09-13T22:49:52;10.30;;;8.80;;
39778;SDS011;25454;49.878;8.618;2022-09-13T22:54:53;10.03;;;8.90;;
39778;SDS011;25454;49.878;8.618;2022-09-13T22:59:53;8.47;;;7.67;;
39778;SDS011;25454;49.878;8.618;2022-09-13T23:04:54;12.47;;;8.80;;
39778;SDS011;25454;49.878;8.618;2022-09-13T23:09:54;9.70;;;8.80;;
39778;SDS011;25454;49.878;8.618;2022-09-13T23:14:55;11.23;;;9.70;;
39778;SDS011;25454;49.878;8.618;2022-09-13T23:19:55;10.43;;;9.43;;
39778;SDS011;25454;49.878;8.618;2022-09-13T23:24:56;9.93;;;9.03;;
39778;SDS011;25454;49.878;8.618;2022-09-13T23:29:56;10.83;;;7.90;;
39778;SDS011;25454;49.878;8.618;2022-09-13T23:34:57;10.87;;;9.17;;
39778;SDS011;25454;49.878;8.618;2022-09-13T23:39:58;10.47;;;9.47;;
39778;SDS011;25454;49.878;8.618;2022-09-13T23:45:00;9.47;;;8.67;;
39778;SDS011;25454;49.878;8.618;2022-09-13T23:50:00;8.63;;;7.73;;
39778;SDS011;25454;49.878;8.618;2022-09-13T23:55:01;12.73;;;9.00;;
